createdAt,value
2022-11-22T00:01:18.671Z,6.09
2022-11-22T00:03:45.014Z,6.03
2022-11-22T00:06:11.341Z,6.09
2022-11-22T00:08:37.672Z,6.10
2022-11-22T00:11:04.020Z,6.04
2022-11-22T00:13:30.359Z,6.11
2022-11-22T00:15:58.861Z,6.18
2022-11-22T00:18:25.200Z,6.15
2022-11-22T00:20:51.557Z,6.22
2022-11-22T00:23:17.886Z,6.25
2022-11-22T00:25:45.356Z,6.23
2022-11-22T00:28:11.701Z,6.23
2022-11-22T00:30:38.041Z,6.18
2022-11-22T00:33:04.428Z,6.23
2022-11-22T00:35:30.842Z,6.21
2022-11-22T00:37:57.166Z,6.25
2022-11-22T00:40:23.510Z,6.25
2022-11-22T00:42:49.837Z,6.29
2022-11-22T00:45:16.209Z,6.28
2022-11-22T00:47:42.546Z,6.24
2022-11-22T00:50:09.790Z,6.32
2022-11-22T00:52:36.134Z,6.26
2022-11-22T00:55:02.530Z,6.18
2022-11-22T00:57:28.875Z,6.15
2022-11-22T00:59:55.221Z,6.15
2022-11-22T01:02:21.606Z,6.22
2022-11-22T01:04:47.979Z,6.17
2022-11-22T01:07:14.371Z,6.20
2022-11-22T01:09:40.837Z,6.13
2022-11-22T01:12:07.262Z,6.15
2022-11-22T01:14:33.770Z,6.28
2022-11-22T01:17:00.332Z,6.25
2022-11-22T01:19:26.761Z,6.16
2022-11-22T01:21:53.111Z,6.14
2022-11-22T01:24:19.461Z,6.10
2022-11-22T01:26:45.927Z,6.10
2022-11-22T01:29:12.283Z,6.12
2022-11-22T01:31:38.624Z,6.09
2022-11-22T01:34:05.492Z,6.05
2022-11-22T01:36:31.847Z,6.02
2022-11-22T01:38:58.210Z,6.08
2022-11-22T01:41:24.598Z,6.10
2022-11-22T01:43:50.944Z,6.16
2022-11-22T01:46:34.319Z,6.08
2022-11-22T01:49:14.371Z,6.18
2022-11-22T01:51:46.396Z,6.10
2022-11-22T01:54:17.444Z,6.14
2022-11-22T01:56:47.978Z,6.17
2022-11-22T01:59:19.431Z,6.19
2022-11-22T02:01:46.004Z,6.21
2022-11-22T02:04:15.659Z,6.23
2022-11-22T02:07:01.518Z,6.21
2022-11-22T02:09:29.680Z,6.18
2022-11-22T02:11:58.355Z,6.23
2022-11-22T02:14:27.315Z,6.22
2022-11-22T02:16:53.937Z,6.25
2022-11-22T02:19:31.823Z,6.28
2022-11-22T02:22:06.438Z,6.25
2022-11-22T02:24:45.477Z,6.34
2022-11-22T02:27:11.857Z,6.29
2022-11-22T02:29:38.807Z,6.33
2022-11-22T02:32:05.215Z,6.40
2022-11-22T02:34:44.310Z,6.42
2022-11-22T02:37:13.711Z,6.50
2022-11-22T02:39:41.696Z,6.50
2022-11-22T02:42:08.136Z,6.55
2022-11-22T02:44:34.597Z,6.59
2022-11-22T02:47:00.994Z,6.60
2022-11-22T02:49:27.371Z,6.64
2022-11-22T02:51:53.798Z,6.64
2022-11-22T02:54:20.209Z,6.69
2022-11-22T02:56:47.124Z,6.73
2022-11-22T02:59:13.843Z,6.65
2022-11-22T03:01:40.905Z,6.74
2022-11-22T03:04:07.297Z,6.71
2022-11-22T03:06:33.712Z,6.72
2022-11-22T03:09:00.166Z,6.74
2022-11-22T03:11:26.628Z,6.68
2022-11-22T03:13:52.991Z,6.76
2022-11-22T03:16:19.330Z,6.78
2022-11-22T03:18:45.681Z,6.80
2022-11-22T03:21:12.287Z,6.77
2022-11-22T03:23:38.708Z,6.74
2022-11-22T03:26:11.888Z,6.70
2022-11-22T03:28:38.292Z,6.75
2022-11-22T03:31:06.216Z,6.73
2022-11-22T03:33:33.716Z,6.75
2022-11-22T03:36:00.163Z,6.78
2022-11-22T03:38:26.505Z,6.69
2022-11-22T03:40:52.838Z,6.69
2022-11-22T03:43:19.192Z,6.74
2022-11-22T03:45:46.947Z,6.65
2022-11-22T03:48:13.944Z,6.62
2022-11-22T03:50:40.443Z,6.65
2022-11-22T03:53:07.083Z,6.64
2022-11-22T03:55:33.791Z,6.58
2022-11-22T03:58:00.230Z,6.58
2022-11-22T04:00:26.666Z,6.50
2022-11-22T04:02:53.021Z,6.60
2022-11-22T04:05:19.386Z,6.53
2022-11-22T04:07:45.762Z,6.46
2022-11-22T04:10:13.043Z,6.50
2022-11-22T04:12:40.770Z,6.46
2022-11-22T04:15:07.480Z,6.44
2022-11-22T04:17:40.546Z,6.44
2022-11-22T04:20:28.016Z,6.40
2022-11-22T04:22:57.994Z,6.30
2022-11-22T04:25:27.314Z,6.26
2022-11-22T04:27:53.971Z,6.27
2022-11-22T04:30:21.106Z,6.23
2022-11-22T04:32:47.821Z,6.12
2022-11-22T04:35:18.366Z,6.16
2022-11-22T04:37:50.977Z,6.15
2022-11-22T04:40:17.406Z,6.12
2022-11-22T04:43:02.209Z,6.11
2022-11-22T04:45:28.540Z,6.05
2022-11-22T04:48:00.730Z,6.01
2022-11-22T04:50:48.361Z,6.04
2022-11-22T04:53:15.792Z,6.01
2022-11-22T04:55:44.540Z,6.00
2022-11-22T04:58:11.656Z,6.00
2022-11-22T05:00:38.669Z,5.98
2022-11-22T05:03:05.810Z,5.96
2022-11-22T05:05:36.558Z,5.91
2022-11-22T05:08:03.828Z,5.82
2022-11-22T05:10:50.339Z,5.82
2022-11-22T05:13:17.857Z,5.82
2022-11-22T05:15:44.286Z,5.83
2022-11-22T05:18:10.894Z,5.81
2022-11-22T05:20:37.314Z,5.85
2022-11-22T05:23:22.679Z,5.84
2022-11-22T05:25:49.134Z,5.72
2022-11-22T05:28:15.511Z,5.74
2022-11-22T05:30:42.219Z,5.73
2022-11-22T05:33:08.555Z,5.68
2022-11-22T05:35:34.945Z,5.70
2022-11-22T05:38:01.262Z,5.68
2022-11-22T05:40:27.637Z,5.69
2022-11-22T05:42:53.972Z,5.67
2022-11-22T05:45:20.315Z,5.66
2022-11-22T05:47:46.679Z,5.65
2022-11-22T05:50:13.297Z,5.65
2022-11-22T05:52:39.641Z,5.67
2022-11-22T05:55:06.613Z,5.63
2022-11-22T05:57:33.040Z,5.63
2022-11-22T05:59:59.546Z,5.76
2022-11-22T06:02:26.328Z,5.72
2022-11-22T06:04:52.706Z,5.72
2022-11-22T06:07:19.143Z,5.84
2022-11-22T06:09:45.493Z,5.82
2022-11-22T06:12:11.825Z,5.80
2022-11-22T06:14:43.002Z,5.79
2022-11-22T06:17:09.946Z,5.77
2022-11-22T06:19:36.375Z,5.74
2022-11-22T06:22:03.586Z,5.69
2022-11-22T06:24:29.976Z,5.75
2022-11-22T06:26:56.302Z,5.75
2022-11-22T06:29:22.637Z,5.74
2022-11-22T06:31:48.957Z,5.75
2022-11-22T06:34:15.313Z,5.78
2022-11-22T06:36:41.670Z,5.73
2022-11-22T06:39:08.101Z,5.69
2022-11-22T06:41:37.078Z,5.73
2022-11-22T06:44:05.924Z,5.78
2022-11-22T06:46:32.780Z,5.68
2022-11-22T06:48:59.139Z,5.69
2022-11-22T06:51:30.446Z,5.58
2022-11-22T06:53:58.063Z,5.61
2022-11-22T06:56:33.027Z,5.57
2022-11-22T06:59:03.743Z,5.64
2022-11-22T07:01:31.021Z,5.63
2022-11-22T07:03:59.273Z,5.60
2022-11-22T07:06:31.304Z,5.65
2022-11-22T07:08:59.461Z,5.60
2022-11-22T07:11:28.366Z,5.58
2022-11-22T07:14:01.722Z,5.53
2022-11-22T07:16:31.939Z,5.59
2022-11-22T07:18:59.538Z,5.56
2022-11-22T07:21:26.733Z,5.57
2022-11-22T07:23:54.678Z,5.60
2022-11-22T07:26:23.675Z,5.56
2022-11-22T07:28:50.005Z,5.59
2022-11-22T07:31:17.427Z,5.59
2022-11-22T07:33:44.672Z,5.66
2022-11-22T07:36:13.686Z,5.60
2022-11-22T07:38:40.631Z,5.59
2022-11-22T07:41:08.036Z,5.56
2022-11-22T07:43:35.030Z,5.56
2022-11-22T07:46:02.954Z,5.53
2022-11-22T07:48:29.553Z,5.48
2022-11-22T07:50:55.974Z,5.55
2022-11-22T07:53:22.343Z,5.52
2022-11-22T07:55:48.737Z,5.50
2022-11-22T07:58:15.070Z,5.54
2022-11-22T08:00:41.418Z,5.46
2022-11-22T08:03:08.714Z,5.56
2022-11-22T08:05:35.109Z,5.59
2022-11-22T08:08:01.452Z,5.69
2022-11-22T08:10:27.802Z,5.74
2022-11-22T08:12:54.150Z,5.76
2022-11-22T08:15:20.664Z,5.80
2022-11-22T08:17:47.029Z,5.91
2022-11-22T08:20:13.666Z,5.99
2022-11-22T08:22:40.825Z,6.01
2022-11-22T08:25:12.379Z,6.08
2022-11-22T08:27:43.053Z,6.12
2022-11-22T08:30:11.435Z,6.21
2022-11-22T08:32:38.271Z,6.24
2022-11-22T08:35:05.344Z,6.21
2022-11-22T08:37:31.730Z,6.27
2022-11-22T08:39:58.075Z,6.40
2022-11-22T08:42:24.473Z,6.51
2022-11-22T08:44:50.933Z,6.58
2022-11-22T08:47:17.407Z,6.62
2022-11-22T08:49:43.789Z,6.65
2022-11-22T08:52:10.202Z,6.71
2022-11-22T08:54:38.108Z,6.77
2022-11-22T08:57:05.138Z,6.85
2022-11-22T08:59:31.856Z,6.94
2022-11-22T09:01:58.516Z,7.02
2022-11-22T09:04:24.943Z,7.09
2022-11-22T09:09:38.335Z,7.14
2022-11-22T09:12:05.340Z,7.24
2022-11-22T09:14:31.823Z,7.32
2022-11-22T09:16:58.233Z,7.40
2022-11-22T09:19:24.647Z,7.46
2022-11-22T09:21:50.981Z,7.44
2022-11-22T09:24:17.421Z,7.54
2022-11-22T09:26:43.771Z,7.59
2022-11-22T09:29:10.272Z,7.68
2022-11-22T09:31:36.597Z,7.71
2022-11-22T09:34:03.077Z,7.83
2022-11-22T09:36:29.487Z,7.85
2022-11-22T09:38:56.813Z,7.87
2022-11-22T09:41:39.979Z,8.03
2022-11-22T09:44:23.488Z,8.04
2022-11-22T09:46:58.283Z,8.05
2022-11-22T09:50:10.101Z,8.06
2022-11-22T09:52:43.972Z,8.08
2022-11-22T09:55:45.258Z,8.23
2022-11-22T09:58:28.479Z,8.30
2022-11-22T10:01:02.105Z,8.26
2022-11-22T10:03:57.497Z,8.45
2022-11-22T10:06:31.990Z,8.41
2022-11-22T10:09:20.621Z,8.54
2022-11-22T10:12:09.472Z,8.66
2022-11-22T10:14:57.550Z,8.50
2022-11-22T10:17:36.624Z,8.27
2022-11-22T10:20:11.150Z,8.12
2022-11-22T10:22:37.563Z,8.00
2022-11-22T10:25:14.844Z,7.82
2022-11-22T10:27:41.879Z,7.97
2022-11-22T10:30:20.259Z,8.09
2022-11-22T10:32:52.576Z,8.19
2022-11-22T10:35:42.651Z,8.18
2022-11-22T10:38:25.792Z,8.07
2022-11-22T10:41:11.744Z,7.93
2022-11-22T10:43:55.287Z,8.05
2022-11-22T10:46:43.288Z,8.05
2022-11-22T10:49:37.565Z,8.19
2022-11-22T10:52:16.985Z,8.35
2022-11-22T10:55:22.190Z,8.65
2022-11-22T10:57:59.898Z,8.84
2022-11-22T11:00:29.525Z,8.85
2022-11-22T11:03:06.100Z,8.98
2022-11-22T11:06:00.779Z,8.94
2022-11-22T11:09:02.523Z,8.92
2022-11-22T11:11:26.584Z,8.97
2022-11-22T11:13:58.879Z,8.86
2022-11-22T11:16:28.733Z,9.03
2022-11-22T11:19:16.815Z,9.01
2022-11-22T11:21:43.841Z,9.11
2022-11-22T11:24:14.956Z,9.25
2022-11-22T11:26:43.958Z,9.39
2022-11-22T11:29:19.333Z,9.36
2022-11-22T11:31:50.794Z,9.40
2022-11-22T11:34:28.962Z,9.51
2022-11-22T11:37:00.975Z,9.59
2022-11-22T11:39:36.267Z,9.72
2022-11-22T11:42:22.448Z,9.65
2022-11-22T11:44:48.812Z,9.36
2022-11-22T11:47:34.841Z,9.08
2022-11-22T11:50:01.234Z,9.11
2022-11-22T11:52:29.697Z,9.01
2022-11-22T11:55:02.234Z,8.99
2022-11-22T11:57:36.183Z,9.09
2022-11-22T12:00:06.706Z,9.22
2022-11-22T12:02:41.833Z,9.31
2022-11-22T12:05:14.063Z,9.39
2022-11-22T12:07:44.556Z,9.51
2022-11-22T12:10:47.550Z,9.32
2022-11-22T12:13:30.045Z,9.15
2022-11-22T12:16:22.432Z,8.92
2022-11-22T12:19:04.306Z,8.72
2022-11-22T12:21:53.477Z,8.54
2022-11-22T12:25:16.571Z,8.59
2022-11-22T12:27:37.157Z,8.69
2022-11-22T12:30:03.828Z,8.83
2022-11-22T12:32:43.650Z,8.92
2022-11-22T12:35:20.287Z,8.95
2022-11-22T12:38:08.434Z,8.96
2022-11-22T12:40:55.590Z,9.11
2022-11-22T12:43:29.630Z,9.23
2022-11-22T12:46:05.680Z,9.33
2022-11-22T12:48:48.768Z,9.35
2022-11-22T12:51:24.675Z,9.41
2022-11-22T12:53:53.080Z,9.31
2022-11-22T12:56:29.816Z,9.28
2022-11-22T12:59:11.373Z,9.16
2022-11-22T13:01:52.045Z,9.05
2022-11-22T13:04:26.330Z,8.95
2022-11-22T13:06:58.474Z,8.85
2022-11-22T13:09:31.352Z,8.82
2022-11-22T13:12:03.546Z,8.87
2022-11-22T13:14:47.508Z,8.84
2022-11-22T13:17:17.160Z,8.81
2022-11-22T13:19:55.220Z,8.82
2022-11-22T13:22:28.719Z,8.76
2022-11-22T13:25:01.036Z,8.71
2022-11-22T13:27:44.773Z,8.65
2022-11-22T13:30:22.850Z,8.67
2022-11-22T13:32:55.424Z,8.64
2022-11-22T13:35:32.204Z,8.62
2022-11-22T13:38:09.482Z,8.52
2022-11-22T13:40:45.102Z,8.49
2022-11-22T13:43:15.616Z,8.55
2022-11-22T13:45:51.453Z,8.56
2022-11-22T13:48:40.288Z,8.50
2022-11-22T13:51:18.529Z,8.46
2022-11-22T13:53:46.666Z,8.50
2022-11-22T13:56:16.019Z,8.54
2022-11-22T13:58:51.136Z,8.47
2022-11-22T14:01:36.267Z,8.42
2022-11-22T14:04:19.677Z,8.47
2022-11-22T14:07:09.237Z,8.57
2022-11-22T14:09:38.072Z,8.53
2022-11-22T14:12:10.495Z,8.47
2022-11-22T14:15:10.786Z,8.52
2022-11-22T14:17:52.308Z,8.41
2022-11-22T14:20:46.551Z,8.42
2022-11-22T14:23:40.697Z,8.38
2022-11-22T14:26:21.401Z,8.46
2022-11-22T14:29:19.176Z,8.40
2022-11-22T14:32:00.583Z,8.43
2022-11-22T14:34:30.220Z,8.44
2022-11-22T14:37:18.116Z,8.37
2022-11-22T14:39:44.419Z,8.43
2022-11-22T14:42:35.633Z,8.41
2022-11-22T14:45:04.873Z,8.43
2022-11-22T14:47:35.218Z,8.44
2022-11-22T14:50:04.744Z,8.38
2022-11-22T14:52:32.936Z,8.39
2022-11-22T14:55:02.487Z,8.43
2022-11-22T14:57:31.762Z,8.39
2022-11-22T15:00:23.989Z,8.34
2022-11-22T15:03:38.278Z,8.27
2022-11-22T15:09:14.561Z,8.32
2022-11-22T15:09:53.536Z,8.26
2022-11-22T15:12:50.713Z,8.26
2022-11-22T15:59:46.795Z,8.11
2022-11-22T16:02:16.637Z,8.14
2022-11-22T16:06:05.693Z,8.13
2022-11-22T16:07:48.025Z,8.09
2022-11-22T16:10:26.451Z,7.98
2022-11-22T16:12:53.609Z,8.06
2022-11-22T16:15:37.026Z,8.12
2022-11-22T16:18:27.399Z,8.10
2022-11-22T16:21:02.245Z,8.03
2022-11-22T16:23:31.195Z,8.06
2022-11-22T16:26:17.082Z,8.05
2022-11-22T16:28:43.701Z,8.04
2022-11-22T16:31:17.395Z,8.06
2022-11-22T16:33:44.577Z,8.07
2022-11-22T16:36:16.220Z,8.07
2022-11-22T16:38:43.696Z,8.09
2022-11-22T16:41:29.138Z,8.08
2022-11-22T16:44:11.552Z,8.10
2022-11-22T16:46:39.715Z,8.09
2022-11-22T16:49:20.562Z,8.11
2022-11-22T16:51:48.529Z,8.07
2022-11-22T16:56:44.828Z,8.03
2022-11-22T16:59:14.662Z,8.04
2022-11-22T17:01:42.616Z,8.03
2022-11-22T17:04:23.601Z,8.06
2022-11-22T17:06:50.326Z,8.09
2022-11-22T17:09:16.753Z,8.10
2022-11-22T17:11:44.505Z,8.06
2022-11-22T17:14:14.517Z,8.08
2022-11-22T17:16:42.213Z,8.05
2022-11-22T17:19:30.276Z,7.99
2022-11-22T17:21:55.878Z,7.96
2022-11-22T17:24:23.696Z,7.97
2022-11-22T17:26:50.074Z,7.96
2022-11-22T17:29:35.286Z,7.94
2022-11-22T17:32:02.807Z,7.97
2022-11-22T17:34:29.753Z,7.93
2022-11-22T17:36:56.355Z,7.89
2022-11-22T17:39:22.715Z,7.89
2022-11-22T17:41:49.408Z,7.86
2022-11-22T17:44:17.849Z,7.82
2022-11-22T17:46:44.217Z,7.70
2022-11-22T17:49:15.635Z,7.72
2022-11-22T17:51:42.907Z,7.56
2022-11-22T17:54:09.464Z,7.51
2022-11-22T17:56:37.122Z,7.53
2022-11-22T17:59:04.163Z,7.49
2022-11-22T18:01:30.530Z,7.52
2022-11-22T18:03:57.059Z,7.59
2022-11-22T18:06:23.441Z,7.59
2022-11-22T18:08:49.854Z,7.49
2022-11-22T18:11:16.463Z,7.43
2022-11-22T18:13:43.703Z,7.52
2022-11-22T18:16:13.970Z,7.54
2022-11-22T18:18:57.571Z,7.51
2022-11-22T18:21:25.506Z,7.57
2022-11-22T18:23:51.937Z,7.50
2022-11-22T18:31:52.662Z,7.34
2022-11-22T18:34:19.747Z,7.32
2022-11-22T18:37:03.909Z,7.18
2022-11-22T18:39:36.808Z,7.21
2022-11-22T18:42:08.708Z,7.18
2022-11-22T18:44:35.111Z,7.17
2022-11-22T18:47:01.897Z,7.14
2022-11-22T18:49:28.447Z,7.11
2022-11-22T18:51:55.549Z,7.09
2022-11-22T18:54:22.706Z,7.13
2022-11-22T18:56:50.090Z,7.10
2022-11-22T18:59:17.127Z,7.08
2022-11-22T19:01:43.552Z,7.11
2022-11-22T19:04:14.034Z,7.12
2022-11-22T19:06:41.744Z,7.10
2022-11-22T19:09:08.971Z,7.15
2022-11-22T19:11:35.611Z,7.12
2022-11-22T19:14:02.248Z,7.10
2022-11-22T19:16:30.001Z,7.18
2022-11-22T19:18:57.546Z,7.13
2022-11-22T19:21:26.729Z,7.16
2022-11-22T19:23:54.059Z,7.15
2022-11-22T19:26:23.226Z,7.16
2022-11-22T19:28:52.009Z,7.18
2022-11-22T19:31:21.139Z,7.19
2022-11-22T19:33:48.236Z,7.19
2022-11-22T19:36:20.655Z,7.17
2022-11-22T19:38:47.883Z,7.20
2022-11-22T19:41:20.044Z,7.23
2022-11-22T19:43:47.943Z,7.27
2022-11-22T19:46:15.070Z,7.19
2022-11-22T19:48:46.866Z,7.11
2022-11-22T19:51:15.462Z,7.15
2022-11-22T19:53:42.063Z,7.12
2022-11-22T19:56:17.380Z,7.10
2022-11-22T19:58:49.440Z,7.15
2022-11-22T20:01:16.554Z,7.14
2022-11-22T20:03:43.803Z,7.19
2022-11-22T20:06:12.706Z,7.12
2022-11-22T20:08:39.666Z,7.16
2022-11-22T20:11:13.945Z,7.11
2022-11-22T20:13:43.193Z,7.14
2022-11-22T20:16:12.274Z,7.14
2022-11-22T20:18:38.660Z,7.18
2022-11-22T20:21:07.037Z,7.17
2022-11-22T20:23:33.655Z,7.13
2022-11-22T20:26:10.753Z,7.19
2022-11-22T20:28:42.056Z,7.21
2022-11-22T20:31:11.239Z,7.11
2022-11-22T20:33:40.122Z,7.14
2022-11-22T20:36:28.102Z,7.15
2022-11-22T20:38:55.303Z,7.17
2022-11-22T20:41:24.706Z,7.19
2022-11-22T20:43:51.864Z,7.18
2022-11-22T20:46:20.871Z,7.26
2022-11-22T20:48:48.886Z,7.29
2022-11-22T20:51:21.063Z,7.33
2022-11-22T20:53:47.749Z,7.38
2022-11-22T20:56:14.985Z,7.40
2022-11-22T20:58:42.356Z,7.37
2022-11-22T21:01:17.506Z,7.40
2022-11-22T21:03:44.621Z,7.37
2022-11-22T21:06:12.562Z,7.43
2022-11-22T21:08:39.485Z,7.48
2022-11-22T21:11:10.125Z,7.46
2022-11-22T21:13:36.840Z,7.57
2022-11-22T21:16:15.643Z,7.56
2022-11-22T21:18:53.706Z,7.61
2022-11-22T21:21:22.929Z,7.65
2022-11-22T21:23:51.081Z,7.70
2022-11-22T21:26:18.083Z,7.71
2022-11-22T21:28:47.564Z,7.74
2022-11-22T21:31:14.061Z,7.69
2022-11-22T21:33:42.438Z,7.71
2022-11-22T21:36:09.348Z,7.66
2022-11-22T21:38:38.234Z,7.70
2022-11-22T21:41:32.340Z,7.75
2022-11-22T21:43:55.680Z,7.78
2022-11-22T21:46:22.156Z,7.76
2022-11-22T21:48:49.910Z,7.74
2022-11-22T21:51:16.313Z,7.76
2022-11-22T21:53:42.683Z,7.74
2022-11-22T21:56:09.112Z,7.74
2022-11-22T21:58:35.447Z,7.78
2022-11-22T22:01:03.503Z,7.77
2022-11-22T22:03:30.530Z,7.77
2022-11-22T22:05:57.706Z,7.77
2022-11-22T22:08:29.234Z,7.73
2022-11-22T22:10:58.668Z,7.71
2022-11-22T22:13:25.598Z,7.78
2022-11-22T22:15:57.270Z,7.69
2022-11-22T22:18:28.734Z,7.71
2022-11-22T22:21:00.244Z,7.72
2022-11-22T22:23:26.817Z,7.66
2022-11-22T22:25:58.477Z,7.70
2022-11-22T22:28:26.429Z,7.70
2022-11-22T22:30:52.760Z,7.68
2022-11-22T22:33:19.122Z,7.64
2022-11-22T22:35:45.459Z,7.67
2022-11-22T22:38:11.804Z,7.71
2022-11-22T22:40:38.163Z,7.76
2022-11-22T22:43:04.497Z,7.75
2022-11-22T22:45:30.833Z,7.76
2022-11-22T22:47:58.114Z,7.68
2022-11-22T22:50:24.479Z,7.65
2022-11-22T22:52:50.963Z,7.66
2022-11-22T22:55:17.319Z,7.66
2022-11-22T22:57:43.646Z,7.69
2022-11-22T23:00:10.616Z,7.67
2022-11-22T23:02:37.047Z,7.65
2022-11-22T23:05:03.681Z,7.58
2022-11-22T23:07:30.120Z,7.61
2022-11-22T23:09:56.605Z,7.50
2022-11-22T23:12:22.936Z,7.48
2022-11-22T23:14:49.301Z,7.52
2022-11-22T23:17:15.638Z,7.60
2022-11-22T23:19:41.981Z,7.49
2022-11-22T23:22:08.331Z,7.49
2022-11-22T23:24:34.698Z,7.43
2022-11-22T23:27:01.176Z,7.47
2022-11-22T23:29:27.677Z,7.40
2022-11-22T23:31:54.102Z,7.41
2022-11-22T23:34:20.443Z,7.42
2022-11-22T23:36:46.811Z,7.37
2022-11-22T23:39:13.199Z,7.34
2022-11-22T23:41:39.613Z,7.40
2022-11-22T23:44:07.223Z,7.36
2022-11-22T23:46:33.704Z,7.44
2022-11-22T23:49:01.086Z,7.41
2022-11-22T23:51:29.576Z,7.44
2022-11-22T23:53:57.837Z,7.43
2022-11-22T23:56:24.935Z,7.54
2022-11-22T23:58:51.641Z,7.56
